Strona główna
METAR-TAF:

METAR-TAF

Lotnisko :

Port lotniczy Trat

Trat, Tajlandia

Szerokość geograficzna: 12-16-28N, Długość geograficzna: 102-19-08E, wysokość: 32 m

Aktualna obserwacja pogody

Raport powstał 12 godziny i 44 minut temu, godzina 11:00 UTC
Wiatr 10 kt od północny wschód
Temperatura 32°C
Wilgotność 36%
Ciśnienie 1012 hPa
Widzialność: 6000 m

METAR: VTBO 231100Z 05010KT 6000 NSC 32/15 Q1012

czas: 06:44 (23:44 UTC)

Prognoza

Raport powstał 6 godziny i 44 minut temu, godzina 17:00 UTC
Prognoza ważna od 23 godzina 18 UTC do 24 godzina 18 UTC
Wiatr 5 kt od północ
Widzialność: 3000 m
zamglenie
Stopniowe zmiany
od 24 godzina 00 UTC do 24 godzina 02 UTC
Wiatr 8 kt od północny wschód
Widzialność: 7000 m
Stopniowe zmiany
od 24 godzina 06 UTC do 24 godzina 08 UTC
Wiatr 8 kt od zachodnio-południowy zachód

TAF: VTBO 231700Z 2318/2418 35005KT 3000 BR NSC BECMG 2400/2402 05008KT 7000 NSW BECMG 2406/2408 24008KT

Obserwacja i prognoza pogody dla ponad 4000 lotnisk (raport METAR i TAF).

Dostępne stacje oznaczono żółtymi i czerwonymi punktami na mapie.

Najedź kursorem aby zobaczyć nazwę stacji.

Kliknij aby zobaczyć obserwacje i prognozy pogody.

Aby zmienić mapę: kliknij na zielony przycisk z czarnym krzyżykiem, aby powiększyć; na zielony przycisk z myślnikiem, aby pomniejszyć; na zielone strzałki, aby przejść do map sąsiednich.


METAR-TAF: